createdAt,value
2023-01-11T00:00:25.219Z,24.05
2023-01-11T00:02:56.733Z,24.01
2023-01-11T00:05:23.429Z,24.07
2023-01-11T00:07:49.884Z,24.05
2023-01-11T00:10:16.593Z,24.04
2023-01-11T00:12:43.349Z,24.05
2023-01-11T00:15:10.587Z,24.02
2023-01-11T00:17:37.063Z,23.99
2023-01-11T00:20:03.731Z,24.00
2023-01-11T00:22:30.199Z,23.99
2023-01-11T00:24:56.632Z,23.97
2023-01-11T00:27:23.100Z,23.96
2023-01-11T00:29:49.552Z,23.95
2023-01-11T00:32:16.012Z,23.93
2023-01-11T00:34:42.494Z,23.93
2023-01-11T00:37:10.606Z,23.90
2023-01-11T00:39:37.073Z,23.89
2023-01-11T00:42:22.012Z,23.86
2023-01-11T00:45:06.949Z,23.83
2023-01-11T00:47:51.988Z,23.82
2023-01-11T00:50:18.504Z,23.80
2023-01-11T00:52:44.968Z,23.80
2023-01-11T00:55:11.426Z,23.77
2023-01-11T00:57:38.203Z,23.75
2023-01-11T01:00:05.263Z,23.74
2023-01-11T01:02:32.936Z,23.70
2023-01-11T01:04:59.886Z,23.68
2023-01-11T01:07:26.393Z,23.67
2023-01-11T01:09:52.857Z,23.65
2023-01-11T01:12:39.327Z,23.64
2023-01-11T01:15:06.080Z,23.62
2023-01-11T01:17:32.540Z,23.60
2023-01-11T01:19:58.984Z,23.56
2023-01-11T01:22:25.441Z,23.55
2023-01-11T01:24:51.899Z,23.54
2023-01-11T01:27:19.972Z,23.53
2023-01-11T01:29:46.472Z,23.52
2023-01-11T01:32:12.934Z,23.50
2023-01-11T01:34:39.398Z,23.47
2023-01-11T01:37:06.448Z,23.45
2023-01-11T01:39:32.932Z,23.44
2023-01-11T01:41:59.415Z,23.38
2023-01-11T01:44:50.513Z,23.33
2023-01-11T01:47:16.989Z,23.30
2023-01-11T01:49:43.484Z,23.29
2023-01-11T01:52:09.986Z,23.25
2023-01-11T01:54:37.431Z,23.22
2023-01-11T01:57:07.207Z,23.20
2023-01-11T01:59:33.683Z,23.19
2023-01-11T02:02:00.235Z,23.17
2023-01-11T02:04:40.365Z,23.12
2023-01-11T02:07:12.072Z,23.09
2023-01-11T02:10:03.886Z,23.08
2023-01-11T02:12:32.110Z,23.03
2023-01-11T02:15:00.386Z,23.02
2023-01-11T02:17:26.841Z,22.93
2023-01-11T02:20:21.561Z,22.91
2023-01-11T02:22:53.846Z,22.91
2023-01-11T02:25:44.106Z,22.88
2023-01-11T02:28:26.635Z,22.87
2023-01-11T02:31:05.185Z,22.86
2023-01-11T02:33:40.661Z,22.84
2023-01-11T02:36:09.389Z,22.84
2023-01-11T02:38:46.349Z,22.82
2023-01-11T02:41:25.351Z,22.81
2023-01-11T02:44:15.896Z,22.78
2023-01-11T02:46:45.309Z,22.76
2023-01-11T02:49:16.835Z,22.75
2023-01-11T02:51:47.450Z,22.71
2023-01-11T02:54:13.949Z,22.70
2023-01-11T02:56:41.935Z,22.71
2023-01-11T02:59:10.426Z,22.70
2023-01-11T03:01:46.999Z,22.67
2023-01-11T03:04:23.347Z,22.67
2023-01-11T03:06:49.835Z,22.68
2023-01-11T03:09:20.216Z,22.66
2023-01-11T03:12:17.427Z,22.66
2023-01-11T03:15:14.786Z,22.62
2023-01-11T03:17:54.575Z,22.59
2023-01-11T03:20:24.167Z,22.55
2023-01-11T03:23:15.616Z,22.54
2023-01-11T03:26:07.589Z,22.52
2023-01-11T03:28:40.188Z,22.52
2023-01-11T03:31:18.210Z,22.54
2023-01-11T03:34:19.096Z,22.54
2023-01-11T03:36:49.837Z,22.55
2023-01-11T03:39:22.246Z,22.55
2023-01-11T03:41:48.749Z,22.54
2023-01-11T03:44:15.247Z,22.53
2023-01-11T03:46:45.220Z,22.53
2023-01-11T03:49:15.654Z,22.52
2023-01-11T03:51:43.514Z,22.51
2023-01-11T03:54:13.575Z,22.50
2023-01-11T03:56:48.788Z,22.48
2023-01-11T03:59:15.265Z,22.48
2023-01-11T04:01:41.714Z,22.47
2023-01-11T04:04:08.201Z,22.47
2023-01-11T04:06:35.752Z,22.44
2023-01-11T04:09:02.235Z,22.41
2023-01-11T04:11:28.692Z,22.41
2023-01-11T04:13:55.208Z,22.39
2023-01-11T04:16:21.752Z,22.39
2023-01-11T04:18:48.229Z,22.36
2023-01-11T04:21:14.686Z,22.36
2023-01-11T04:23:41.197Z,22.36
2023-01-11T04:26:07.663Z,22.34
2023-01-11T04:28:34.384Z,22.31
2023-01-11T04:31:00.830Z,22.28
2023-01-11T04:33:27.301Z,22.29
2023-01-11T04:35:53.800Z,22.27
2023-01-11T04:38:20.354Z,22.25
2023-01-11T04:40:47.806Z,22.26
2023-01-11T04:43:14.263Z,22.30
2023-01-11T04:45:40.828Z,22.31
2023-01-11T04:48:07.340Z,22.32
2023-01-11T04:50:33.885Z,22.32
2023-01-11T04:53:00.401Z,22.32
2023-01-11T04:55:26.851Z,22.31
2023-01-11T04:57:53.288Z,22.28
2023-01-11T05:00:19.958Z,22.28
2023-01-11T05:02:46.427Z,22.26
2023-01-11T05:05:12.972Z,22.24
2023-01-11T05:07:39.587Z,22.19
2023-01-11T05:10:06.547Z,22.18
2023-01-11T05:12:32.991Z,22.18
2023-01-11T05:14:59.467Z,22.16
2023-01-11T05:17:25.931Z,22.13
2023-01-11T05:19:52.416Z,22.13
2023-01-11T05:22:18.858Z,22.12
2023-01-11T05:24:45.310Z,22.11
2023-01-11T05:27:12.155Z,22.09
2023-01-11T05:29:38.637Z,22.08
2023-01-11T05:32:05.342Z,22.09
2023-01-11T05:34:31.828Z,22.10
2023-01-11T05:36:58.278Z,22.10
2023-01-11T05:39:24.784Z,22.11
2023-01-11T05:41:51.223Z,22.10
2023-01-11T05:44:36.729Z,22.09
2023-01-11T05:47:04.179Z,22.07
2023-01-11T05:49:30.667Z,22.07
2023-01-11T05:51:57.149Z,22.06
2023-01-11T05:54:23.626Z,22.05
2023-01-11T05:56:50.075Z,22.05
2023-01-11T05:59:16.557Z,22.05
2023-01-11T06:01:43.073Z,22.05
2023-01-11T06:04:09.632Z,22.05
2023-01-11T06:06:36.182Z,22.04
2023-01-11T06:09:02.702Z,22.06
2023-01-11T06:11:29.177Z,22.09
2023-01-11T06:13:55.686Z,22.11
2023-01-11T06:16:22.401Z,22.06
2023-01-11T06:18:50.308Z,22.03
2023-01-11T06:21:16.830Z,22.03
2023-01-11T06:23:45.177Z,22.04
2023-01-11T06:26:13.154Z,22.02
2023-01-11T06:28:39.727Z,22.00
2023-01-11T06:31:06.313Z,22.01
2023-01-11T06:33:32.922Z,22.00
2023-01-11T06:35:59.425Z,21.99
2023-01-11T06:38:25.954Z,21.99
2023-01-11T06:40:56.798Z,21.97
2023-01-11T06:43:23.680Z,22.02
2023-01-11T06:45:50.214Z,22.00
2023-01-11T06:48:17.436Z,21.97
2023-01-11T06:50:47.032Z,22.01
2023-01-11T06:53:13.494Z,21.98
2023-01-11T06:55:39.948Z,21.99
2023-01-11T06:58:06.400Z,21.95
2023-01-11T07:00:33.243Z,21.99
2023-01-11T07:03:04.255Z,21.99
2023-01-11T07:05:32.615Z,21.97
2023-01-11T07:07:59.162Z,21.97
2023-01-11T07:10:25.608Z,21.95
2023-01-11T07:12:53.389Z,21.91
2023-01-11T07:15:19.909Z,21.92
2023-01-11T07:17:47.735Z,21.90
2023-01-11T07:20:14.241Z,21.89
2023-01-11T07:22:40.707Z,21.86
2023-01-11T07:25:07.391Z,21.80
2023-01-11T07:27:33.852Z,21.85
2023-01-11T07:30:00.312Z,21.81
2023-01-11T07:32:28.444Z,21.82
2023-01-11T07:34:55.476Z,21.82
2023-01-11T07:37:28.145Z,21.79
2023-01-11T07:39:55.659Z,21.78
2023-01-11T07:42:40.408Z,21.78
2023-01-11T07:45:07.436Z,21.77
2023-01-11T07:47:33.897Z,21.74
2023-01-11T07:50:00.676Z,21.75
2023-01-11T07:52:27.140Z,21.72
2023-01-11T07:54:53.629Z,21.73
2023-01-11T07:57:20.131Z,21.73
2023-01-11T07:59:46.614Z,21.73
2023-01-11T08:02:13.070Z,21.74
2023-01-11T08:04:39.579Z,21.75
2023-01-11T08:07:06.038Z,21.76
2023-01-11T08:09:32.502Z,21.77
2023-01-11T08:12:17.275Z,21.78
2023-01-11T08:14:44.039Z,21.77
2023-01-11T08:17:14.837Z,21.77
2023-01-11T08:19:41.360Z,21.78
2023-01-11T08:22:07.870Z,21.77
2023-01-11T08:24:37.127Z,21.76
2023-01-11T08:27:03.747Z,21.75
2023-01-11T08:29:30.313Z,21.73
2023-01-11T08:31:57.116Z,21.72
2023-01-11T08:34:23.622Z,21.74
2023-01-11T08:36:50.076Z,21.79
2023-01-11T08:39:16.730Z,21.84
2023-01-11T08:41:43.452Z,22.00
2023-01-11T08:44:11.810Z,22.17
2023-01-11T08:46:38.708Z,22.23
2023-01-11T08:49:11.072Z,22.26
2023-01-11T08:51:39.073Z,22.20
2023-01-11T08:54:09.429Z,22.31
2023-01-11T08:56:36.942Z,22.30
2023-01-11T08:59:04.296Z,22.23
2023-01-11T09:01:43.914Z,22.23
2023-01-11T09:04:25.974Z,22.25
2023-01-11T09:06:53.060Z,22.34
2023-01-11T09:09:19.528Z,22.37
2023-01-11T09:11:54.868Z,22.40
2023-01-11T09:14:21.605Z,22.45
2023-01-11T09:16:48.799Z,22.59
2023-01-11T09:19:15.339Z,22.65
2023-01-11T09:21:41.877Z,22.61
2023-01-11T09:24:08.486Z,22.56
2023-01-11T09:26:35.753Z,22.52
2023-01-11T09:29:02.315Z,22.39
2023-01-11T09:31:28.908Z,22.37
2023-01-11T09:33:55.448Z,22.38
2023-01-11T09:36:23.476Z,22.45
2023-01-11T09:38:52.643Z,22.42
2023-01-11T09:41:28.999Z,22.37
2023-01-11T09:44:14.440Z,22.33
2023-01-11T09:46:42.895Z,22.29
2023-01-11T09:49:20.218Z,22.14
2023-01-11T09:51:46.741Z,22.15
2023-01-11T09:54:23.264Z,22.30
2023-01-11T09:56:54.777Z,22.42
2023-01-11T09:59:34.846Z,22.40
2023-01-11T10:02:12.197Z,22.42
2023-01-11T10:05:18.526Z,22.56
2023-01-11T10:07:53.725Z,22.65
2023-01-11T10:18:38.447Z,22.67
2023-01-11T10:19:47.821Z,22.70
2023-01-11T10:22:27.833Z,22.60
2023-01-11T10:24:56.315Z,22.54
2023-01-11T10:27:40.339Z,22.50
2023-01-11T10:30:41.965Z,22.48
2023-01-11T10:33:45.302Z,22.49
2023-01-11T10:36:39.535Z,22.42
2023-01-11T10:40:01.336Z,22.39
2023-01-11T10:42:29.829Z,22.38
2023-01-11T10:44:59.993Z,22.35
2023-01-11T10:47:30.429Z,22.32
2023-01-11T10:50:06.295Z,22.31
2023-01-11T10:52:47.868Z,22.28
2023-01-11T10:55:15.859Z,22.24
2023-01-11T10:58:04.952Z,22.24
2023-01-11T11:00:44.951Z,22.22
2023-01-11T11:03:26.582Z,22.21
2023-01-11T11:06:20.257Z,22.23
2023-01-11T11:09:08.244Z,22.30
2023-01-11T11:11:46.996Z,22.29
2023-01-11T11:14:16.884Z,22.33
2023-01-11T11:17:09.241Z,22.35
2023-01-11T11:19:35.679Z,22.37
2023-01-11T11:22:02.201Z,22.35
2023-01-11T11:24:48.298Z,22.36
2023-01-11T11:27:38.454Z,22.32
2023-01-11T11:30:05.410Z,22.32
2023-01-11T11:32:36.735Z,22.31
2023-01-11T11:35:04.020Z,22.34
2023-01-11T11:37:35.100Z,22.34
2023-01-11T11:40:01.577Z,22.34
2023-01-11T11:42:28.159Z,22.33
2023-01-11T11:45:09.941Z,22.33
2023-01-11T11:47:37.097Z,22.33
2023-01-11T11:50:27.367Z,22.33
2023-01-11T11:53:04.185Z,22.34
2023-01-11T11:55:32.365Z,22.34
2023-01-11T11:58:00.108Z,22.33
2023-01-11T12:00:30.907Z,22.33
2023-01-11T12:03:12.525Z,22.33
2023-01-11T12:05:39.039Z,22.32
2023-01-11T12:08:05.817Z,22.31
2023-01-11T12:10:32.322Z,22.31
2023-01-11T12:13:02.509Z,22.30
2023-01-11T12:15:32.958Z,22.33
2023-01-11T12:18:26.126Z,22.31
2023-01-11T12:20:52.616Z,22.30
2023-01-11T12:23:25.664Z,22.29
2023-01-11T12:26:16.097Z,22.32
2023-01-11T12:28:51.275Z,22.31
2023-01-11T12:31:51.637Z,22.28
2023-01-11T12:34:35.620Z,22.26
2023-01-11T12:37:27.001Z,22.27
2023-01-11T12:40:20.774Z,22.24
2023-01-11T12:43:12.020Z,22.20
2023-01-11T12:46:02.272Z,22.23
2023-01-11T12:48:38.157Z,22.24
2023-01-11T12:51:38.529Z,22.26
2023-01-11T12:54:42.693Z,22.30
2023-01-11T12:57:20.879Z,22.33
2023-01-11T13:00:06.193Z,22.34
2023-01-11T13:02:56.127Z,22.34
2023-01-11T13:05:48.238Z,22.40
2023-01-11T13:08:49.577Z,22.41
2023-01-11T13:11:43.359Z,22.35
2023-01-11T13:14:31.732Z,22.31
2023-01-11T13:17:25.951Z,22.20
2023-01-11T13:20:11.041Z,22.12
2023-01-11T13:22:40.252Z,22.17
2023-01-11T13:25:19.122Z,22.26
2023-01-11T13:27:45.588Z,22.23
2023-01-11T13:30:12.999Z,22.26
2023-01-11T13:32:40.122Z,22.28
2023-01-11T13:35:13.909Z,22.26
2023-01-11T13:37:43.021Z,22.26
2023-01-11T13:40:25.383Z,22.34
2023-01-11T13:43:07.075Z,22.36
2023-01-11T13:45:43.903Z,22.33
2023-01-11T13:48:18.324Z,22.31
2023-01-11T13:50:47.903Z,22.34
2023-01-11T13:53:36.898Z,22.33
2023-01-11T13:56:20.471Z,22.32
2023-01-11T13:58:58.073Z,22.30
2023-01-11T14:01:50.379Z,22.25
2023-01-11T14:04:27.625Z,22.26
2023-01-11T14:07:20.968Z,22.27
2023-01-11T14:10:04.769Z,22.25
2023-01-11T14:12:42.903Z,22.26
2023-01-11T14:15:26.358Z,22.21
2023-01-11T14:18:20.890Z,22.14
2023-01-11T14:20:50.763Z,22.12
2023-01-11T14:23:19.154Z,22.10
2023-01-11T14:25:54.344Z,22.11
2023-01-11T14:28:45.590Z,22.14
2023-01-11T14:31:39.957Z,22.15
2023-01-11T14:34:28.884Z,22.15
2023-01-11T14:36:55.240Z,22.15
2023-01-11T14:39:47.066Z,22.07
2023-01-11T14:42:51.319Z,22.13
2023-01-11T14:45:24.188Z,22.12
2023-01-11T14:48:15.645Z,22.08
2023-01-11T14:51:15.018Z,22.07
2023-01-11T14:53:45.857Z,22.06
2023-01-11T14:56:43.385Z,22.05
2023-01-11T14:59:24.494Z,22.33
2023-01-11T15:02:03.066Z,22.50
2023-01-11T15:04:33.619Z,22.23
2023-01-11T15:07:00.334Z,22.14
2023-01-11T15:09:49.234Z,21.27
2023-01-11T15:12:20.401Z,20.87
2023-01-11T15:14:54.208Z,21.42
2023-01-11T15:17:40.941Z,21.59
2023-01-11T15:20:11.408Z,21.67
2023-01-11T15:22:38.114Z,21.70
2023-01-11T15:25:26.596Z,21.75
2023-01-11T15:27:53.207Z,21.84
2023-01-11T15:30:28.924Z,21.88
2023-01-11T15:33:46.611Z,21.97
2023-01-11T15:36:13.177Z,22.01
2023-01-11T15:38:54.317Z,21.99
2023-01-11T15:42:03.153Z,21.94
2023-01-11T15:45:07.481Z,21.83
2023-01-11T15:47:52.549Z,21.81
2023-01-11T15:50:32.093Z,21.80
2023-01-11T15:53:29.141Z,21.75
2023-01-11T15:56:03.068Z,21.71
2023-01-11T15:58:52.447Z,21.82
2023-01-11T16:01:22.749Z,21.92
2023-01-11T16:04:10.003Z,21.97
2023-01-11T16:06:36.319Z,22.03
2023-01-11T16:09:30.246Z,22.05
2023-01-11T16:12:07.317Z,22.07
2023-01-11T16:14:56.455Z,21.99
2023-01-11T16:17:23.162Z,22.03
2023-01-11T16:19:55.299Z,22.09
2023-01-11T16:22:26.268Z,22.12
2023-01-11T16:24:55.746Z,22.12
2023-01-11T16:27:29.833Z,22.12
2023-01-11T16:29:56.169Z,22.15
2023-01-11T16:32:26.997Z,22.17
2023-01-11T16:34:53.703Z,22.20
2023-01-11T16:37:28.398Z,22.17
2023-01-11T16:40:17.641Z,22.22
2023-01-11T16:42:55.362Z,22.22
2023-01-11T16:45:41.299Z,22.22
2023-01-11T16:48:10.650Z,22.24
2023-01-11T16:50:37.148Z,22.24
2023-01-11T16:53:24.997Z,22.27
2023-01-11T16:56:05.349Z,22.32
2023-01-11T16:58:38.437Z,22.38
2023-01-11T17:01:09.826Z,22.54
2023-01-11T17:03:38.591Z,22.71
2023-01-11T17:06:08.110Z,23.08
2023-01-11T17:09:01.335Z,23.39
2023-01-11T17:11:27.700Z,23.63
2023-01-11T17:14:13.079Z,23.83
2023-01-11T17:16:41.426Z,23.99
2023-01-11T17:19:12.667Z,24.04
2023-01-11T17:21:39.141Z,24.12
2023-01-11T17:24:05.851Z,24.17
2023-01-11T17:26:37.314Z,24.27
2023-01-11T17:29:03.835Z,24.34
2023-01-11T17:31:32.219Z,24.41
2023-01-11T17:34:08.537Z,24.53
2023-01-11T17:36:35.045Z,24.62
2023-01-11T17:39:01.607Z,24.70
2023-01-11T17:41:46.874Z,24.79
2023-01-11T17:44:36.689Z,24.89
2023-01-11T17:47:04.780Z,24.95
2023-01-11T17:49:31.257Z,25.01
2023-01-11T17:51:59.836Z,25.05
2023-01-11T17:54:26.766Z,25.07
2023-01-11T17:56:58.410Z,25.15
2023-01-11T17:59:26.264Z,25.14
2023-01-11T18:02:02.752Z,25.17
2023-01-11T18:04:29.522Z,25.18
2023-01-11T18:07:04.700Z,25.22
2023-01-11T18:09:32.282Z,25.24
2023-01-11T18:12:12.057Z,25.24
2023-01-11T18:14:40.631Z,25.26
2023-01-11T18:17:35.095Z,25.26
2023-01-11T18:20:03.627Z,25.29
2023-01-11T18:22:30.762Z,25.31
2023-01-11T18:24:58.353Z,25.23
2023-01-11T18:27:32.293Z,25.20
2023-01-11T18:30:02.550Z,25.23
2023-01-11T18:32:32.621Z,25.25
2023-01-11T18:34:59.090Z,25.20
2023-01-11T18:37:25.801Z,25.11
2023-01-11T18:39:52.801Z,25.12
2023-01-11T18:42:21.324Z,25.10
2023-01-11T18:44:49.370Z,25.17
2023-01-11T18:47:21.381Z,25.17
2023-01-11T18:49:48.598Z,25.20
2023-01-11T18:52:15.054Z,25.27
2023-01-11T18:54:41.694Z,25.27
2023-01-11T18:57:08.227Z,25.29
2023-01-11T18:59:34.713Z,25.20
2023-01-11T19:02:27.345Z,25.26
2023-01-11T19:04:54.690Z,25.25
2023-01-11T19:07:21.409Z,25.27
2023-01-11T19:09:47.948Z,25.23
2023-01-11T19:12:14.621Z,25.23
2023-01-11T19:14:41.142Z,25.26
2023-01-11T19:17:08.778Z,25.23
2023-01-11T19:19:35.392Z,25.21
2023-01-11T19:22:02.220Z,25.23
2023-01-11T19:24:28.727Z,25.18
2023-01-11T19:26:55.691Z,25.15
2023-01-11T19:29:24.577Z,25.19
2023-01-11T19:31:52.158Z,25.16
2023-01-11T19:34:18.991Z,25.15
2023-01-11T19:36:45.511Z,25.15
2023-01-11T19:39:12.158Z,25.12
2023-01-11T19:41:54.946Z,25.13
2023-01-11T19:44:22.265Z,25.11
2023-01-11T19:46:56.718Z,25.05
2023-01-11T19:49:27.064Z,24.79
2023-01-11T19:51:53.529Z,24.55
2023-01-11T19:54:21.523Z,24.41
2023-01-11T19:56:49.142Z,24.38
2023-01-11T19:59:15.779Z,24.33
2023-01-11T20:01:42.349Z,24.40
2023-01-11T20:04:08.916Z,24.34
2023-01-11T20:06:35.383Z,24.34
2023-01-11T20:09:01.845Z,24.54
2023-01-11T20:11:28.296Z,24.56
2023-01-11T20:13:54.772Z,24.59
2023-01-11T20:16:22.790Z,24.58
2023-01-11T20:18:56.089Z,24.57
2023-01-11T20:21:23.321Z,24.55
2023-01-11T20:23:49.782Z,24.52
2023-01-11T20:26:16.323Z,24.52
2023-01-11T20:28:53.343Z,24.48
2023-01-11T20:31:21.324Z,24.48
2023-01-11T20:33:47.851Z,24.45
2023-01-11T20:36:16.015Z,24.44
2023-01-11T20:38:42.820Z,24.43
2023-01-11T20:41:10.465Z,24.43
2023-01-11T20:43:40.240Z,24.42
2023-01-11T20:46:07.211Z,24.38
2023-01-11T20:48:35.645Z,24.37
2023-01-11T20:51:03.067Z,24.35
2023-01-11T20:53:29.585Z,24.32
2023-01-11T20:55:56.489Z,24.28
2023-01-11T20:58:23.128Z,24.26
2023-01-11T21:00:49.788Z,24.30
2023-01-11T21:03:19.858Z,24.32
2023-01-11T21:05:46.396Z,24.32
2023-01-11T21:08:12.867Z,24.29
2023-01-11T21:10:39.596Z,24.27
2023-01-11T21:13:06.836Z,24.28
2023-01-11T21:15:33.316Z,24.19
2023-01-11T21:17:59.760Z,24.14
2023-01-11T21:20:26.244Z,24.12
2023-01-11T21:22:52.709Z,24.11
2023-01-11T21:25:19.481Z,24.06
2023-01-11T21:27:45.949Z,24.04
2023-01-11T21:30:12.478Z,24.07
2023-01-11T21:32:39.078Z,24.11
2023-01-11T21:35:05.798Z,24.29
2023-01-11T21:37:32.234Z,24.50
2023-01-11T21:39:58.725Z,24.48
2023-01-11T21:42:25.185Z,24.61
2023-01-11T21:44:51.678Z,24.68
2023-01-11T21:47:19.593Z,24.78
2023-01-11T21:49:46.087Z,24.84
2023-01-11T21:52:12.536Z,24.94
2023-01-11T21:54:39.008Z,25.00
2023-01-11T21:57:05.485Z,24.82
2023-01-11T21:59:33.661Z,24.76
2023-01-11T22:02:00.460Z,25.17
2023-01-11T22:04:26.938Z,25.31
2023-01-11T22:06:58.084Z,25.42
2023-01-11T22:09:26.285Z,25.51
2023-01-11T22:11:52.822Z,25.59
2023-01-11T22:14:19.360Z,25.67
2023-01-11T22:16:45.844Z,25.76
2023-01-11T22:19:12.393Z,25.87
2023-01-11T22:21:38.913Z,25.92
2023-01-11T22:24:06.298Z,25.99
2023-01-11T22:26:35.677Z,25.97
2023-01-11T22:29:17.639Z,25.97
2023-01-11T22:31:50.741Z,26.04
2023-01-11T22:34:17.467Z,26.07
2023-01-11T22:36:44.154Z,26.09
2023-01-11T22:39:11.286Z,26.08
2023-01-11T22:41:39.870Z,26.08
2023-01-11T22:44:07.560Z,26.04
2023-01-11T22:46:34.013Z,26.09
2023-01-11T22:49:00.524Z,26.06
2023-01-11T22:51:27.074Z,26.07
2023-01-11T22:53:53.939Z,26.08
2023-01-11T22:56:22.139Z,26.08
2023-01-11T22:58:50.316Z,26.05
2023-01-11T23:01:24.405Z,25.67
2023-01-11T23:03:51.186Z,25.12
2023-01-11T23:06:19.459Z,25.09
2023-01-11T23:08:45.919Z,24.85
2023-01-11T23:11:40.049Z,25.14
2023-01-11T23:14:08.474Z,25.57
2023-01-11T23:16:35.107Z,25.74
2023-01-11T23:19:01.737Z,25.81
2023-01-11T23:21:28.270Z,25.83
2023-01-11T23:23:54.759Z,25.86
2023-01-11T23:26:21.607Z,25.86
2023-01-11T23:28:48.643Z,25.86
2023-01-11T23:31:24.859Z,25.85
2023-01-11T23:33:53.083Z,25.84
2023-01-11T23:36:20.556Z,25.86
2023-01-11T23:38:47.267Z,25.86
2023-01-11T23:41:36.503Z,25.83
2023-01-11T23:44:04.936Z,25.84
2023-01-11T23:47:03.579Z,25.82
2023-01-11T23:49:30.649Z,25.83
2023-01-11T23:51:57.209Z,25.32
2023-01-11T23:54:26.082Z,25.13
2023-01-11T23:56:52.566Z,25.07
2023-01-11T23:59:19.039Z,25.01
